Time;durP1;ratioP1;P1;durP2;ratioP2;P2;SDS_P1;SDS_P2;PMS_P1;PMS_P2;Temp;Humidity;BMP_temperature;BMP_pressure;BME280_temperature;BME280_humidity;BME280_pressure;Samples;Min_cycle;Max_cycle;Signal;HPM_P1;HPM_P2
2021/12/18 00:01:47;;;;;;;28.42;10.45;;;;;;;2.11;83.64;102066.47;2075890;82;21639;-69
2021/12/18 00:04:49;;;;;;;38.40;11.55;;;;;;;2.13;83.66;102062.46;2089955;82;21451;-71
2021/12/18 00:07:51;;;;;;;23.12;9.68;;;;;;;2.13;83.66;102059.38;2081927;83;21048;-69
2021/12/18 00:10:55;;;;;;;30.30;10.13;;;;;;;2.13;83.62;102059.38;2091965;83;21045;-71
2021/12/18 00:13:57;;;;;;;22.30;8.90;;;;;;;2.13;83.62;102054.14;2071394;82;21591;-69
2021/12/18 00:16:58;;;;;;;23.83;8.95;;;;;;;2.13;83.57;102059.38;2082639;83;21564;-71
2021/12/18 00:19:59;;;;;;;22.67;9.28;;;;;;;2.15;83.58;102054.94;2094052;82;21481;-69
2021/12/18 00:23:01;;;;;;;22.20;9.15;;;;;;;2.14;83.53;102057.17;2072391;83;21053;-72
2021/12/18 00:26:03;;;;;;;27.42;10.65;;;;;;;2.14;83.55;102062.41;2090427;83;21116;-74
2021/12/18 00:29:05;;;;;;;28.07;10.65;;;;;;;2.13;83.49;102065.08;2091421;83;21043;-72
2021/12/18 00:32:07;;;;;;;20.17;9.33;;;;;;;2.13;83.50;102070.31;2091187;82;21473;-69
2021/12/18 00:35:09;;;;;;;29.30;10.93;;;;;;;2.12;83.50;102072.09;2079347;83;21547;-69
2021/12/18 00:38:11;;;;;;;24.98;9.05;;;;;;;2.13;83.50;102067.23;2082982;83;21019;-70
2021/12/18 00:41:16;;;;;;;23.45;8.65;;;;;;;2.13;83.47;102067.70;2058114;83;21065;-79
2021/12/18 00:44:16;;;;;;;23.27;9.50;;;;;;;2.15;83.51;102079.81;2084902;83;21084;-69
2021/12/18 00:47:18;;;;;;;27.70;10.18;;;;;;;2.16;83.49;102078.89;2085827;83;21112;-71
2021/12/18 00:50:25;;;;;;;28.02;9.60;;;;;;;2.17;83.50;102080.61;2076564;83;21088;-71
2021/12/18 00:53:26;;;;;;;26.93;10.55;;;;;;;2.16;83.47;102087.20;2064963;83;21084;-71
2021/12/18 00:56:28;;;;;;;28.02;9.90;;;;;;;2.15;83.52;102082.89;2084428;83;21103;-76
2021/12/18 00:59:32;;;;;;;19.82;9.80;;;;;;;2.12;83.51;102093.05;2079376;82;21008;-70
2021/12/18 01:02:33;;;;;;;19.42;9.45;;;;;;;2.09;83.50;102098.41;2093142;82;21597;-70
2021/12/18 01:05:34;;;;;;;26.10;9.50;;;;;;;2.09;83.55;102101.49;2082527;82;21040;-70
2021/12/18 01:08:36;;;;;;;21.68;9.33;;;;;;;2.07;83.57;102102.85;2095242;83;21052;-79
2021/12/18 01:11:45;;;;;;;22.73;9.05;;;;;;;2.06;83.61;102094.61;2076510;82;21072;-69
2021/12/18 01:15:03;;;;;;;25.08;10.53;;;;;;;2.09;83.59;102096.25;2094802;83;21397;-69
2021/12/18 01:24:31;;;;;;;30.77;9.20;;;;;;;2.04;83.61;102101.67;2084550;83;21085;-69
2021/12/18 01:27:35;;;;;;;26.10;9.75;;;;;;;2.03;83.64;102102.59;2086989;83;21056;-71
2021/12/18 01:30:36;;;;;;;24.05;8.93;;;;;;;2.02;83.60;102101.72;2079965;82;21097;-70
2021/12/18 01:33:38;;;;;;;18.73;8.85;;;;;;;2.01;83.55;102095.25;2088105;83;21214;-71
2021/12/18 01:36:39;;;;;;;23.67;9.63;;;;;;;2.03;83.62;102094.74;2076694;82;21520;-70
2021/12/18 01:39:42;;;;;;;23.18;9.03;;;;;;;2.03;83.61;102094.74;2089678;82;21037;-70
2021/12/18 01:52:32;;;;;;;20.62;9.18;;;;;;;2.02;83.66;102072.91;2095779;83;21523;-69
2021/12/18 01:55:35;;;;;;;19.98;8.80;;;;;;;2.03;83.66;102068.55;2081820;82;21067;-72
2021/12/18 01:58:37;;;;;;;18.40;8.65;;;;;;;2.05;83.66;102069.32;2088727;83;21096;-70
2021/12/18 02:01:39;;;;;;;20.37;9.23;;;;;;;2.07;83.62;102074.51;2070030;82;20982;-69
2021/12/18 02:04:40;;;;;;;26.12;10.15;;;;;;;2.05;83.57;102071.09;2086952;83;21200;-70
2021/12/18 02:07:42;;;;;;;24.05;9.78;;;;;;;2.07;83.65;102077.13;2088060;82;21065;-69
2021/12/18 02:10:48;;;;;;;25.75;8.80;;;;;;;2.07;83.66;102070.12;2064479;83;21075;-69
2021/12/18 02:20:40;;;;;;;21.93;8.88;;;;;;;2.03;83.62;102073.80;2086002;83;21061;-70
2021/12/18 02:23:40;;;;;;;20.25;8.35;;;;;;;2.03;83.57;102075.10;2089489;82;21060;-69
2021/12/18 02:26:42;;;;;;;20.45;8.83;;;;;;;2.06;83.66;102076.28;2095400;83;21060;-80
2021/12/18 02:29:44;;;;;;;17.45;8.55;;;;;;;2.06;83.58;102078.91;2081917;82;21040;-69
2021/12/18 02:32:46;;;;;;;19.77;9.48;;;;;;;2.09;83.61;102077.92;2092588;82;21108;-72
2021/12/18 02:35:50;;;;;;;23.27;9.83;;;;;;;2.08;83.54;102070.96;2082310;83;21026;-71
2021/12/18 02:42:19;;;;;;;27.52;8.90;;;;;;;2.07;83.62;102070.58;2094211;82;21009;-70
2021/12/18 02:44:59;;;;;;;21.57;8.28;;;;;;;2.05;83.50;102077.64;2075556;83;22643;-70
2021/12/18 02:48:00;;;;;;;18.85;8.75;;;;;;;2.03;83.49;102079.03;2059883;83;21044;-71
2021/12/18 02:51:05;;;;;;;22.93;8.48;;;;;;;2.02;83.48;102073.38;2066399;82;21133;-70
2021/12/18 02:54:07;;;;;;;20.17;9.00;;;;;;;2.04;83.48;102070.71;2080078;83;21059;-70
2021/12/18 02:57:10;;;;;;;25.08;9.35;;;;;;;2.04;83.46;102076.80;2084934;82;21046;-70
2021/12/18 03:00:13;;;;;;;21.82;10.05;;;;;;;2.03;83.41;102071.17;2064834;82;20997;-69
2021/12/18 03:03:15;;;;;;;18.15;9.30;;;;;;;2.02;83.42;102070.30;2090414;82;21084;-70
2021/12/18 03:25:20;;;;;;;19.02;9.38;;;;;;;2.04;83.48;102050.61;2094362;83;20973;-70
2021/12/18 03:28:20;;;;;;;26.77;10.20;;;;;;;2.06;83.38;102051.87;2086236;83;21111;-69
2021/12/18 03:31:21;;;;;;;25.57;10.45;;;;;;;2.06;83.35;102052.71;2086969;83;21084;-69
2021/12/18 03:34:23;;;;;;;17.00;9.03;;;;;;;2.05;83.36;102040.52;2084590;83;21101;-69
2021/12/18 03:37:24;;;;;;;24.47;9.75;;;;;;;2.05;83.26;102044.45;2083666;83;21596;-69
2021/12/18 03:40:27;;;;;;;19.70;8.50;;;;;;;2.01;83.23;102042.42;2088561;82;21038;-68
2021/12/18 03:43:29;;;;;;;23.35;9.25;;;;;;;2.02;83.23;102036.72;2073408;83;21112;-71
2021/12/18 03:46:30;;;;;;;19.27;9.40;;;;;;;2.03;83.29;102054.16;2075797;82;21527;-70
2021/12/18 03:49:32;;;;;;;23.50;9.93;;;;;;;2.05;83.26;102048.83;2078803;82;21053;-71
2021/12/18 03:52:34;;;;;;;14.90;8.83;;;;;;;2.09;83.30;102051.73;2093896;83;21076;-71
2021/12/18 03:55:36;;;;;;;20.85;10.45;;;;;;;2.07;83.22;102057.48;2086937;83;21057;-74
2021/12/18 03:58:37;;;;;;;21.50;9.18;;;;;;;2.04;83.18;102059.77;2080674;82;21049;-73
2021/12/18 04:01:39;;;;;;;24.63;9.00;;;;;;;2.03;83.23;102054.16;2080759;82;21120;-71
2021/12/18 04:04:40;;;;;;;23.30;9.55;;;;;;;2.01;83.22;102049.43;2080047;83;21057;-71
2021/12/18 04:07:45;;;;;;;22.42;8.80;;;;;;;2.01;83.21;102046.81;2091454;82;21094;-71
2021/12/18 04:10:46;;;;;;;13.53;7.75;;;;;;;2.02;83.22;102045.88;2090200;82;21064;-77
2021/12/18 04:13:48;;;;;;;25.57;8.38;;;;;;;2.00;83.16;102043.81;2077913;82;21038;-72
2021/12/18 04:16:50;;;;;;;20.20;8.83;;;;;;;2.00;83.15;102033.34;2074111;83;21147;-73
2021/12/18 04:19:51;;;;;;;20.95;8.53;;;;;;;1.99;83.15;102030.30;2082437;82;20974;-72
2021/12/18 04:22:53;;;;;;;24.30;9.03;;;;;;;1.98;83.15;102034.70;2076705;83;21706;-72
2021/12/18 04:25:55;;;;;;;22.35;9.45;;;;;;;1.99;83.26;102028.53;2091729;83;21029;-75
2021/12/18 04:28:57;;;;;;;17.77;8.48;;;;;;;2.02;83.28;102032.80;2093902;82;21084;-71
2021/12/18 04:31:59;;;;;;;17.65;8.30;;;;;;;2.01;83.20;102032.41;2087247;82;21496;-72
2021/12/18 04:35:01;;;;;;;15.63;8.05;;;;;;;2.00;83.21;102033.34;2094359;83;20990;-71
2021/12/18 04:38:02;;;;;;;21.02;7.60;;;;;;;1.99;83.16;102028.53;2092889;83;21044;-74
2021/12/18 04:41:05;;;;;;;17.10;7.78;;;;;;;1.98;83.15;102024.22;2084117;83;21485;-80
2021/12/18 04:44:07;;;;;;;21.07;8.23;;;;;;;1.99;83.16;102027.22;2085885;82;21072;-71
2021/12/18 04:47:08;;;;;;;22.35;9.70;;;;;;;2.00;83.22;102028.95;2091506;83;21004;-74
2021/12/18 04:50:10;;;;;;;17.85;9.08;;;;;;;2.05;83.27;102030.04;2074062;83;21048;-71
2021/12/18 04:53:11;;;;;;;23.12;9.73;;;;;;;2.05;83.23;102025.27;2091517;82;21056;-71
2021/12/18 04:56:13;;;;;;;20.72;9.93;;;;;;;2.03;83.27;102025.35;2081881;82;21075;-71
2021/12/18 04:59:14;;;;;;;16.70;9.65;;;;;;;2.00;83.27;102025.48;2090031;82;21116;-71
2021/12/18 05:02:20;;;;;;;26.33;10.85;;;;;;;1.98;83.27;102026.00;2094521;83;21051;-74
2021/12/18 05:05:20;;;;;;;20.10;9.45;;;;;;;1.95;83.28;102019.58;2096317;83;20986;-72
2021/12/18 05:08:21;;;;;;;26.12;10.43;;;;;;;1.93;83.30;102011.78;2097916;83;21034;-78
2021/12/18 05:11:23;;;;;;;21.57;9.85;;;;;;;1.92;83.33;102013.17;2081319;83;21040;-71
2021/12/18 05:14:24;;;;;;;18.70;8.43;;;;;;;1.92;83.38;102014.02;2080756;83;21658;-71
2021/12/18 05:17:26;;;;;;;17.75;9.23;;;;;;;1.96;83.44;102015.58;2073817;83;20978;-73
2021/12/18 05:20:28;;;;;;;24.82;10.53;;;;;;;1.97;83.36;102011.19;2084455;83;21157;-71
2021/12/18 05:23:29;;;;;;;19.42;10.43;;;;;;;1.95;83.42;102008.65;2061289;82;21089;-75
2021/12/18 05:26:31;;;;;;;23.05;10.15;;;;;;;1.94;83.36;102006.08;2086221;82;21147;-80
2021/12/18 05:29:32;;;;;;;20.10;10.00;;;;;;;1.91;83.39;102014.91;2095773;83;21075;-73
2021/12/18 05:32:34;;;;;;;18.40;9.33;;;;;;;1.89;83.36;102013.30;2053166;83;21496;-71
2021/12/18 05:35:35;;;;;;;24.70;9.35;;;;;;;1.87;83.37;102008.58;2088672;83;21104;-71
2021/12/18 05:38:37;;;;;;;18.92;8.90;;;;;;;1.87;83.40;102009.89;2072090;83;21123;-71
2021/12/18 05:41:39;;;;;;;23.70;9.13;;;;;;;1.91;83.36;102010.14;2085107;83;21096;-71
2021/12/18 05:44:41;;;;;;;19.73;9.93;;;;;;;1.91;83.32;102003.13;2078951;83;21081;-71
2021/12/18 05:47:43;;;;;;;20.72;10.08;;;;;;;1.93;83.36;101992.61;2080212;83;21054;-73
2021/12/18 05:50:46;;;;;;;21.15;10.55;;;;;;;1.91;83.35;101994.43;2086666;83;22745;-72
2021/12/18 05:53:48;;;;;;;23.45;10.70;;;;;;;1.89;83.42;101992.36;2082903;83;21021;-71
2021/12/18 05:56:50;;;;;;;22.87;10.18;;;;;;;1.84;83.42;101981.23;2089168;83;21013;-72
2021/12/18 05:59:52;;;;;;;18.15;9.28;;;;;;;1.78;83.45;101980.56;2085777;82;21100;-71
2021/12/18 06:02:53;;;;;;;19.00;9.45;;;;;;;1.76;83.54;101981.08;2075731;83;21434;-71
2021/12/18 06:05:55;;;;;;;16.27;8.73;;;;;;;1.74;83.55;101981.59;2073357;82;21106;-73
2021/12/18 06:08:56;;;;;;;17.62;8.55;;;;;;;1.74;83.56;101991.22;2084944;83;21037;-71
2021/12/18 06:12:00;;;;;;;23.65;8.83;;;;;;;1.76;83.58;101989.39;2074556;83;21306;-71
2021/12/18 06:15:02;;;;;;;23.77;8.70;;;;;;;1.77;83.59;101988.47;2086088;83;21361;-71
2021/12/18 06:18:04;;;;;;;21.73;8.78;;;;;;;1.77;83.59;101995.89;2084348;82;21045;-71
2021/12/18 06:21:05;;;;;;;17.77;9.15;;;;;;;1.78;83.66;101996.27;2091852;82;21072;-71
2021/12/18 06:24:07;;;;;;;16.90;9.70;;;;;;;1.78;83.71;101996.27;2094647;82;21037;-71
2021/12/18 06:27:11;;;;;;;24.43;9.10;;;;;;;1.78;83.63;102003.27;2095368;82;21049;-72
2021/12/18 06:30:17;;;;;;;19.73;8.23;;;;;;;1.75;83.65;102006.02;2093557;82;21145;-73
2021/12/18 06:33:19;;;;;;;22.73;9.23;;;;;;;1.75;83.67;102008.17;2083138;82;21644;-73
2021/12/18 06:36:21;;;;;;;22.50;8.30;;;;;;;1.75;83.68;102011.26;2078689;83;21060;-71
2021/12/18 06:39:23;;;;;;;13.95;8.03;;;;;;;1.76;83.73;102010.33;2092585;83;21043;-72
2021/12/18 06:42:24;;;;;;;21.65;8.43;;;;;;;1.77;83.72;102012.91;2070676;82;21009;-75
2021/12/18 06:45:26;;;;;;;17.95;9.00;;;;;;;1.80;83.73;102010.58;2097703;83;20997;-74
2021/12/18 06:48:27;;;;;;;19.70;8.93;;;;;;;1.79;83.70;102007.13;2090639;83;21964;-70
2021/12/18 06:51:29;;;;;;;19.02;9.05;;;;;;;1.81;83.79;102003.61;2081150;82;21076;-74
2021/12/18 06:54:30;;;;;;;20.27;8.90;;;;;;;1.78;83.64;101997.58;2089708;82;21095;-73
2021/12/18 06:57:32;;;;;;;16.95;7.83;;;;;;;1.79;83.71;101997.11;2088422;82;21571;-75
2021/12/18 07:00:34;;;;;;;20.17;7.53;;;;;;;1.77;83.67;101990.66;2090592;83;21922;-77
2021/12/18 07:03:36;;;;;;;19.35;7.60;;;;;;;1.75;83.56;102002.95;2079180;83;21005;-73
2021/12/18 07:06:37;;;;;;;13.68;6.83;;;;;;;1.75;83.58;102002.95;2079305;83;21070;-77
2021/12/18 07:09:39;;;;;;;17.15;8.23;;;;;;;1.75;83.61;102009.48;2082866;82;21021;-84
2021/12/18 07:12:41;;;;;;;14.00;6.65;;;;;;;1.76;83.50;102005.94;2089151;83;21001;-76
2021/12/18 07:15:43;;;;;;;19.23;7.67;;;;;;;1.76;83.51;102008.56;2090659;82;21404;-76
2021/12/18 07:18:44;;;;;;;17.70;7.95;;;;;;;1.77;83.42;102007.66;2067379;82;21073;-73
2021/12/18 07:21:46;;;;;;;19.65;8.58;;;;;;;1.76;83.45;102007.25;2088651;83;21197;-78
2021/12/18 07:24:47;;;;;;;14.68;7.90;;;;;;;1.78;83.50;102009.82;2085837;83;21017;-77
2021/12/18 07:27:49;;;;;;;15.43;8.43;;;;;;;1.78;83.43;102008.05;2085845;82;21182;-77
2021/12/18 07:30:50;;;;;;;16.90;7.40;;;;;;;1.78;83.32;102001.50;2085327;83;21052;-77
2021/12/18 07:33:53;;;;;;;16.32;6.58;;;;;;;1.78;83.34;101990.19;2076338;82;21610;-78
2021/12/18 07:36:54;;;;;;;14.07;7.33;;;;;;;1.78;83.35;101984.49;2085260;82;21662;-76
2021/12/18 07:39:55;;;;;;;16.32;7.90;;;;;;;1.81;83.32;101982.20;2079796;82;21135;-76
2021/12/18 07:42:58;;;;;;;16.40;8.13;;;;;;;1.83;83.36;101982.13;2076279;83;21056;-81
2021/12/18 07:46:00;;;;;;;16.05;9.00;;;;;;;1.85;83.27;101978.98;2079083;83;22588;-80
2021/12/18 07:49:03;;;;;;;17.87;9.28;;;;;;;1.85;83.30;101982.91;2097158;83;21045;-76
2021/12/18 07:52:06;;;;;;;16.23;8.30;;;;;;;1.85;83.31;101980.30;2051627;83;22448;-74
2021/12/18 07:55:09;;;;;;;15.10;7.20;;;;;;;1.85;83.29;101973.29;2077667;83;21064;-75
2021/12/18 07:58:11;;;;;;;13.98;7.45;;;;;;;1.85;83.22;101984.23;2085000;83;21106;-74
2021/12/18 08:01:16;;;;;;;16.27;7.67;;;;;;;1.85;83.25;101973.29;2094503;82;21746;-75
2021/12/18 08:04:25;;;;;;;14.20;7.15;;;;;;;1.87;83.21;101979.78;2066488;83;21538;-75
2021/12/18 08:07:29;;;;;;;18.57;7.67;;;;;;;1.86;82.95;101979.37;2089367;82;21072;-76
2021/12/18 08:10:31;;;;;;;11.68;6.92;;;;;;;1.83;83.10;101970.34;2072721;83;21485;-74
2021/12/18 08:13:32;;;;;;;10.35;6.20;;;;;;;1.82;83.11;101979.97;2075567;83;21572;-77
2021/12/18 08:16:34;;;;;;;11.75;6.70;;;;;;;1.84;83.15;101970.76;2093449;82;21216;-74
2021/12/18 08:19:35;;;;;;;12.85;5.72;;;;;;;1.84;83.19;101964.21;2077248;83;21077;-74
2021/12/18 08:22:37;;;;;;;10.25;6.45;;;;;;;1.90;83.18;101971.80;2086145;82;21060;-78
2021/12/18 08:25:39;;;;;;;12.68;7.08;;;;;;;1.92;83.08;101971.28;2084769;83;21065;-74
2021/12/18 08:28:40;;;;;;;11.60;7.25;;;;;;;1.92;83.14;101961.66;2079264;83;21492;-75
2021/12/18 08:31:42;;;;;;;16.07;7.08;;;;;;;1.92;83.01;101960.81;2083763;83;21068;-69
2021/12/18 08:34:44;;;;;;;12.18;6.45;;;;;;;1.90;83.03;101958.70;2091458;82;21029;-74
2021/12/18 08:37:46;;;;;;;13.38;6.85;;;;;;;1.92;83.15;101948.56;2087794;83;21061;-74
2021/12/18 08:40:50;;;;;;;13.83;6.50;;;;;;;1.93;83.02;101955.95;2090750;83;21103;-74
2021/12/18 08:43:52;;;;;;;15.72;8.35;;;;;;;1.97;83.01;101954.45;2074901;83;21039;-75
2021/12/18 08:46:53;;;;;;;16.48;7.45;;;;;;;1.98;82.88;101955.30;2082850;82;21610;-75
2021/12/18 08:49:55;;;;;;;15.83;8.63;;;;;;;1.98;82.91;101945.67;2083442;82;21711;-74
2021/12/18 08:52:56;;;;;;;17.67;9.48;;;;;;;1.99;82.96;101943.44;2088999;83;21095;-74
2021/12/18 08:55:58;;;;;;;16.27;8.28;;;;;;;2.01;83.00;101943.38;2087773;82;21571;-77
2021/12/18 08:59:00;;;;;;;18.65;8.23;;;;;;;2.02;82.85;101941.99;2072070;83;21716;-73
2021/12/18 09:02:03;;;;;;;16.97;8.63;;;;;;;2.00;82.77;101938.61;2090336;82;21066;-74
2021/12/18 09:05:09;;;;;;;16.70;9.35;;;;;;;2.02;82.81;101935.91;2078697;82;21147;-75
2021/12/18 09:08:11;;;;;;;11.73;7.97;;;;;;;2.02;82.81;101935.91;2088939;82;21038;-75
2021/12/18 09:11:13;;;;;;;13.53;7.83;;;;;;;2.02;82.69;101929.36;2065433;82;21090;-74
2021/12/18 09:14:15;;;;;;;16.95;8.25;;;;;;;2.02;82.85;101925.44;2084544;82;21098;-75
2021/12/18 09:17:16;;;;;;;20.77;9.05;;;;;;;2.03;82.71;101924.54;2085776;83;21095;-74
2021/12/18 09:20:18;;;;;;;13.38;7.45;;;;;;;2.02;82.69;101929.36;2076257;83;21155;-75
2021/12/18 09:23:22;;;;;;;11.60;7.40;;;;;;;2.02;82.60;101925.44;2083803;83;21026;-73
2021/12/18 09:26:23;;;;;;;9.53;7.10;;;;;;;2.03;82.79;101915.37;2082280;82;21534;-74
2021/12/18 09:29:25;;;;;;;21.15;9.48;;;;;;;2.08;82.72;101913.38;2084512;83;21080;-75
2021/12/18 09:32:27;;;;;;;18.02;10.28;;;;;;;2.11;82.64;101904.09;2073266;82;21083;-74
2021/12/18 09:35:30;;;;;;;18.12;9.23;;;;;;;2.15;82.70;101902.19;2087544;82;21001;-75
2021/12/18 09:38:42;;;;;;;13.20;9.25;;;;;;;2.20;82.65;101901.06;2079148;83;21766;-75
2021/12/18 11:06:26;;;;;;;19.15;9.78;;;;;;;3.09;82.03;101818.17;2083787;83;21057;-73
2021/12/18 11:09:34;;;;;;;23.20;11.18;;;;;;;3.13;82.12;101822.82;2082208;82;21549;-75
2021/12/18 11:15:56;;;;;;;19.93;10.70;;;;;;;3.21;82.17;101805.36;2080720;83;21078;-74
2021/12/18 11:18:59;;;;;;;15.70;9.38;;;;;;;3.22;82.05;101805.30;2071039;82;21004;-73
2021/12/18 11:22:10;;;;;;;17.07;9.43;;;;;;;3.22;82.06;101791.34;2083154;82;21067;-74
2021/12/18 11:25:13;;;;;;;21.37;9.68;;;;;;;3.25;82.04;101789.39;2059397;82;21151;-74
2021/12/18 11:28:16;;;;;;;13.20;8.28;;;;;;;3.28;82.06;101781.36;2076880;82;21032;-73
2021/12/18 11:31:18;;;;;;;20.88;8.60;;;;;;;3.33;82.10;101781.14;2086908;82;21802;-72
2021/12/18 11:34:20;;;;;;;16.23;8.88;;;;;;;3.38;82.03;101773.88;2084761;83;21423;-70
2021/12/18 11:37:25;;;;;;;15.72;8.93;;;;;;;3.43;81.87;101767.06;2084324;83;21127;-72
2021/12/18 11:40:39;;;;;;;18.32;8.93;;;;;;;3.46;81.95;101766.43;2082276;82;21031;-76
2021/12/18 11:43:43;;;;;;;14.33;8.88;;;;;;;3.51;82.15;101756.54;2083835;83;21118;-73
2021/12/18 11:46:46;;;;;;;17.30;7.25;;;;;;;3.57;81.95;101752.74;2084386;82;20992;-75
2021/12/18 11:49:47;;;;;;;12.03;8.13;;;;;;;3.57;81.38;101747.02;2054904;83;21195;-69
2021/12/18 11:53:08;;;;;;;12.88;7.67;;;;;;;3.55;81.55;101750.22;2085278;83;21095;-75
2021/12/18 11:56:09;;;;;;;16.67;9.07;;;;;;;3.55;81.52;101746.75;2082358;82;21068;-75
2021/12/18 11:59:11;;;;;;;15.00;9.88;;;;;;;3.51;81.34;101749.14;2081320;82;21103;-73
2021/12/18 12:02:13;;;;;;;15.45;8.95;;;;;;;3.54;81.69;101745.03;2082024;83;20988;-72
2021/12/18 12:05:18;;;;;;;18.30;9.63;;;;;;;3.57;81.80;101745.71;2068471;83;21060;-71
2021/12/18 12:08:32;;;;;;;17.23;9.55;;;;;;;3.59;81.60;101750.42;2092376;82;21669;-72
2021/12/18 12:11:32;;;;;;;14.18;8.13;;;;;;;3.56;81.32;101737.47;2084560;83;21806;-73
2021/12/18 12:14:40;;;;;;;21.97;9.58;;;;;;;3.54;81.50;101731.91;2089823;82;21004;-71
2021/12/18 12:18:03;;;;;;;18.65;8.90;;;;;;;3.57;81.60;101722.56;2070328;83;21092;-71
2021/12/18 12:21:04;;;;;;;15.65;9.03;;;;;;;3.57;81.52;101722.09;2075580;82;21067;-70
2021/12/18 12:24:07;;;;;;;15.72;10.38;;;;;;;3.59;81.50;101707.11;2062758;83;21085;-76
2021/12/18 12:27:35;;;;;;;17.87;8.70;;;;;;;3.58;81.51;101706.74;2067386;83;21743;-71
2021/12/18 12:31:01;;;;;;;21.65;10.60;;;;;;;3.62;81.65;101702.63;2091448;83;21588;-78
2021/12/18 12:34:32;;;;;;;20.92;10.45;;;;;;;3.63;81.55;101689.41;2083085;83;21108;-72
2021/12/18 12:37:38;;;;;;;22.55;10.55;;;;;;;3.64;81.49;101695.53;2085271;83;21610;-72
2021/12/18 12:40:39;;;;;;;15.48;9.70;;;;;;;3.66;81.59;101683.14;2060289;83;21084;-84
2021/12/18 12:43:41;;;;;;;19.85;10.10;;;;;;;3.68;81.61;101689.17;2082027;83;21123;-71
2021/12/18 12:46:45;;;;;;;22.73;10.80;;;;;;;3.70;81.67;101692.56;2090757;82;21069;-72
2021/12/18 12:49:51;;;;;;;17.23;9.48;;;;;;;3.72;81.69;101697.28;2083845;82;20966;-71
2021/12/18 12:53:03;;;;;;;17.10;9.83;;;;;;;3.68;81.40;101691.80;2068073;83;21252;-70
2021/12/18 12:56:14;;;;;;;16.07;8.90;;;;;;;3.68;81.61;101690.02;2086648;83;21013;-75
2021/12/18 12:59:29;;;;;;;17.45;8.70;;;;;;;3.71;81.67;101693.78;2080604;83;21028;-78
2021/12/18 13:02:34;;;;;;;17.75;10.25;;;;;;;3.73;81.61;101690.61;2076917;83;21280;-71
2021/12/18 13:05:53;;;;;;;19.98;9.15;;;;;;;3.74;81.64;101686.20;2081917;82;21044;-74
2021/12/18 13:08:55;;;;;;;18.48;9.20;;;;;;;3.76;81.64;101676.47;2076572;82;21777;-77
2021/12/18 13:12:03;;;;;;;17.12;9.83;;;;;;;3.71;81.58;101681.97;2092822;82;22245;-73
2021/12/18 13:15:06;;;;;;;15.25;8.80;;;;;;;3.68;81.62;101682.13;2087334;82;21079;-75
2021/12/18 13:18:10;;;;;;;20.00;8.90;;;;;;;3.65;81.60;101677.05;2076353;81;21128;-72
2021/12/18 13:21:31;;;;;;;13.22;8.28;;;;;;;3.64;81.72;101658.78;2082148;83;21050;-74
2021/12/18 13:24:33;;;;;;;14.47;8.43;;;;;;;3.62;81.75;101665.88;2080956;83;21081;-73
2021/12/18 13:27:38;;;;;;;11.55;7.12;;;;;;;3.60;81.87;101654.14;2083758;83;21053;-73
2021/12/18 13:30:41;;;;;;;13.05;7.65;;;;;;;3.59;81.82;101656.39;2082460;82;21097;-73
2021/12/18 13:33:43;;;;;;;10.13;6.42;;;;;;;3.57;81.88;101639.41;2074367;83;21052;-75
2021/12/18 13:36:59;;;;;;;13.10;7.85;;;;;;;3.59;81.91;101636.23;2081628;83;21088;-80
2021/12/18 13:40:00;;;;;;;9.75;6.62;;;;;;;3.59;81.84;101642.80;2094374;82;21230;-74
2021/12/18 13:43:22;;;;;;;11.00;7.12;;;;;;;3.59;81.84;101636.71;2085884;82;21010;-75
2021/12/18 13:46:31;;;;;;;10.78;7.15;;;;;;;3.61;81.97;101640.11;2088196;83;21861;-69
2021/12/18 13:49:32;;;;;;;11.60;7.00;;;;;;;3.63;81.98;101647.88;2071887;83;21002;-71
2021/12/18 13:52:39;;;;;;;9.50;6.20;;;;;;;3.62;81.90;101647.04;2096645;82;20985;-74
2021/12/18 13:55:55;;;;;;;9.40;5.85;;;;;;;3.62;81.90;101643.57;2091113;81;21009;-72
2021/12/18 13:58:49;;;;;;;8.80;6.10;;;;;;;3.63;81.91;101646.56;2092556;82;21057;-74
2021/12/18 14:01:51;;;;;;;8.78;6.10;;;;;;;3.63;82.00;101643.47;2076130;83;21026;-72
2021/12/18 14:04:53;;;;;;;10.80;6.78;;;;;;;3.63;82.05;101630.34;2086672;82;21749;-71
2021/12/18 14:07:55;;;;;;;11.80;7.40;;;;;;;3.59;82.05;101634.09;2080394;82;21041;-75
2021/12/18 14:11:04;;;;;;;10.65;6.37;;;;;;;3.57;82.10;101630.69;2082139;82;21088;-76
2021/12/18 14:14:10;;;;;;;12.82;7.08;;;;;;;3.58;82.15;101616.19;2079744;82;21112;-76
2021/12/18 14:17:16;;;;;;;12.53;7.97;;;;;;;3.57;82.23;101620.19;2068142;83;21038;-75
2021/12/18 14:20:18;;;;;;;12.55;9.73;;;;;;;3.56;82.26;101614.58;2082138;83;21194;-75
2021/12/18 14:23:20;;;;;;;14.47;9.78;;;;;;;3.56;82.32;101625.91;2078531;82;21117;-74
2021/12/18 14:26:27;;;;;;;13.98;10.15;;;;;;;3.56;82.32;101625.91;2085847;82;21101;-76
2021/12/18 14:29:33;;;;;;;23.38;12.53;;;;;;;3.55;82.38;101629.48;2080351;83;21075;-78
2021/12/18 14:32:34;;;;;;;49.50;18.73;;;;;;;3.56;82.43;101627.70;2091503;82;21103;-76
2021/12/18 14:35:48;;;;;;;60.45;22.07;;;;;;;3.55;82.49;101617.67;2084275;83;21059;-76
2021/12/18 14:38:58;;;;;;;54.93;20.15;;;;;;;3.56;82.57;101618.03;2080046;83;21005;-81
2021/12/18 14:42:17;;;;;;;24.67;13.53;;;;;;;3.58;82.61;101614.03;2084471;82;21001;-80
2021/12/18 14:45:24;;;;;;;31.00;14.87;;;;;;;3.58;82.62;101614.88;2088118;82;21029;-82
2021/12/18 14:48:38;;;;;;;43.50;20.60;;;;;;;3.57;82.75;101609.22;2083443;82;20999;-75
2021/12/18 14:51:38;;;;;;;24.87;14.95;;;;;;;3.57;82.77;101601.34;2060865;82;21002;-76
2021/12/18 14:54:49;;;;;;;19.75;13.50;;;;;;;3.62;82.84;101603.73;2089636;82;21105;-74
2021/12/18 14:58:02;;;;;;;18.90;12.45;;;;;;;3.64;82.80;101598.41;2082941;83;21101;-75
2021/12/18 15:01:11;;;;;;;19.45;13.13;;;;;;;3.64;82.85;101583.50;2078733;83;21063;-76
2021/12/18 15:04:19;;;;;;;32.60;18.73;;;;;;;3.66;82.95;101582.95;2081834;82;21064;-75
2021/12/18 15:07:26;;;;;;;25.88;16.48;;;;;;;3.67;83.00;101574.61;2083225;81;21480;-83
2021/12/18 15:10:49;;;;;;;34.98;18.95;;;;;;;3.67;83.08;101574.61;2071229;83;21116;-76
2021/12/18 15:14:09;;;;;;;61.40;27.30;;;;;;;3.68;83.11;101568.41;2066465;84;21067;-75
2021/12/18 15:17:11;;;;;;;49.08;21.62;;;;;;;3.70;83.20;101559.98;2092145;82;21578;-75
2021/12/18 15:20:13;;;;;;;44.83;22.02;;;;;;;3.72;83.27;101556.81;2077876;83;21060;-75
2021/12/18 15:23:14;;;;;;;33.55;18.30;;;;;;;3.73;83.30;101552.77;2094939;83;21066;-76
2021/12/18 15:26:17;;;;;;;29.72;18.73;;;;;;;3.72;83.34;101538.44;2083088;82;21033;-75
2021/12/18 15:29:23;;;;;;;23.98;15.50;;;;;;;3.72;83.49;101539.75;2095188;83;21076;-79
2021/12/18 15:32:24;;;;;;;20.43;14.50;;;;;;;3.72;83.50;101537.12;2077292;82;21025;-75
2021/12/18 15:35:26;;;;;;;19.60;12.70;;;;;;;3.74;83.60;101528.67;2084374;82;21040;-77
2021/12/18 15:38:28;;;;;;;19.80;13.15;;;;;;;3.75;83.73;101530.39;2086544;81;21073;-79
2021/12/18 15:41:31;;;;;;;14.93;11.43;;;;;;;3.75;83.92;101529.08;2091751;82;21009;-75
2021/12/18 15:44:37;;;;;;;15.40;10.68;;;;;;;3.77;83.96;101537.69;2093337;82;21068;-81
2021/12/18 15:47:39;;;;;;;15.35;11.10;;;;;;;3.78;84.04;101535.46;2089816;82;21077;-78
2021/12/18 15:50:41;;;;;;;16.80;11.03;;;;;;;3.80;84.18;101529.63;2082097;83;21049;-76
2021/12/18 15:53:45;;;;;;;15.60;11.25;;;;;;;3.79;84.40;101517.45;2082769;83;21065;-76
2021/12/18 15:56:46;;;;;;;18.25;12.20;;;;;;;3.78;84.46;101510.05;2088564;83;21060;-75
2021/12/18 15:59:48;;;;;;;16.62;10.68;;;;;;;3.79;84.59;101503.00;2089249;82;21084;-75
2021/12/18 16:02:52;;;;;;;17.80;10.82;;;;;;;3.78;84.68;101502.64;2084758;82;21639;-75
2021/12/18 16:05:54;;;;;;;18.48;12.23;;;;;;;3.78;84.81;101503.48;2088506;83;21671;-74
2021/12/18 16:08:57;;;;;;;18.05;12.05;;;;;;;3.78;84.93;101494.29;2093094;83;21677;-76
2021/12/18 16:11:58;;;;;;;18.32;11.43;;;;;;;3.79;84.93;101485.47;2086331;83;21508;-75
2021/12/18 16:15:00;;;;;;;15.60;10.82;;;;;;;3.80;85.06;101481.92;2075911;82;21615;-84
2021/12/18 16:18:02;;;;;;;14.45;10.43;;;;;;;3.82;85.12;101475.25;2075559;82;21505;-83
2021/12/18 16:21:07;;;;;;;17.00;11.12;;;;;;;3.86;85.24;101474.59;2082565;82;21095;-78
2021/12/18 16:24:08;;;;;;;17.40;11.05;;;;;;;3.87;85.28;101466.64;2092117;82;21369;-78
2021/12/18 16:27:10;;;;;;;17.15;10.60;;;;;;;3.88;85.43;101467.48;2087783;82;21032;-78